Blarney — WDF2810 — position and weather

sailwx.info

Track history (hours):
 
Tides and Currents Weather Stations Pressure Air Temp Water Temp Dewpoint Dewpoint Depression Visibility Wind Speed Wind Dir Waves Ship Positions

Blarney

Owner: Tug Blarney, LLC, Seattle, WA. More information available from US FCC via Universal Licensing System and Coast Guard Vessel Documentation Center.

Last reported at 2018-Jun-20 17:30 UTC. Time now 2018-Jun-20 17:28 UTC.
Position N 34°38' W 120°46'.

Length 30 m; draft 4 m.

Type: Tow > 200 m length. MMSI: 367300280.

Date/timePositionNaut miles runAvg speedWind from/ knotsBaromVisibWave heightAir tempDewpointWater temp
2018-Jun-20 17:30N 34°38' W 120°46'5 9.1
2018-Jun-20 17:00N 34°34' W 120°43'5 9.3
2018-Jun-20 16:30N 34°31' W 120°39'5 9.2
2018-Jun-20 16:00N 34°28' W 120°35'5 9.9
2018-Jun-20 15:30N 34°25' W 120°30'510.6
2018-Jun-20 15:00N 34°23' W 120°24'611.1
2018-Jun-20 14:29N 34°22' W 120°17'510.9
2018-Jun-20 13:59N 34°20' W 120°11'610.7
2018-Jun-20 13:27N 34°18' W 120°04'610.7
2018-Jun-20 12:53N 34°16' W 119°57'410.5
2018-Jun-20 12:30N 34°15' W 119°53'510.6
2018-Jun-20 11:59N 34°14' W 119°46'510.6
2018-Jun-20 11:30N 34°12' W 119°40'510.7
2018-Jun-20 11:00N 34°10' W 119°34'610.6
2018-Jun-20 10:28N 34°08' W 119°28'510.1
2018-Jun-20 10:00N 34°06' W 119°23'510.5
2018-Jun-20 09:30N 34°04' W 119°17'510.6
2018-Jun-20 09:00N 34°01' W 119°12'510.4
2018-Jun-20 08:30N 33°57' W 119°08'510.6
2018-Jun-20 08:00N 33°53' W 119°04'510.4
2018-Jun-20 07:29N 33°50' W 118°58'510.2
2018-Jun-20 07:00N 33°47' W 118°54'510.3
2018-Jun-20 06:29N 33°44' W 118°49'510.0
2018-Jun-20 05:59N 33°40' W 118°44'5710.0
2018-Jun-20 00:19N 33°04' W 117°51'20 9.5
2018-Jun-19 22:15N 32°51' W 117°34'2 9.5
2018-Jun-19 22:00N 32°49' W 117°32'5 9.5
2018-Jun-19 21:30N 32°46' W 117°28'  
Track history (hours):
 
Tides and Currents Weather Stations Pressure Air Temp Water Temp Dewpoint Dewpoint Depression Visibility Wind Speed Wind Dir Waves Ship Positions

Blarney

Owner: Tug Blarney, LLC, Seattle, WA. More information available from US FCC via Universal Licensing System and Coast Guard Vessel Documentation Center.

Last reported at 2018-Jun-20 17:30 UTC. Time now 2018-Jun-20 17:28 UTC.
Position N 34°38' W 120°46'.

Length 30 m; draft 4 m.

Type: Tow > 200 m length. MMSI: 367300280.

Date/timePositionNaut miles runAvg speedWind from/ knotsBaromVisibWave heightAir tempDewpointWater temp
2018-Jun-20 17:30N 34°38' W 120°46'5 9.1
2018-Jun-20 17:00N 34°34' W 120°43'5 9.3
2018-Jun-20 16:30N 34°31' W 120°39'5 9.2
2018-Jun-20 16:00N 34°28' W 120°35'5 9.9
2018-Jun-20 15:30N 34°25' W 120°30'510.6
2018-Jun-20 15:00N 34°23' W 120°24'611.1
2018-Jun-20 14:29N 34°22' W 120°17'510.9
2018-Jun-20 13:59N 34°20' W 120°11'610.7
2018-Jun-20 13:27N 34°18' W 120°04'610.7
2018-Jun-20 12:53N 34°16' W 119°57'410.5
2018-Jun-20 12:30N 34°15' W 119°53'510.6
2018-Jun-20 11:59N 34°14' W 119°46'510.6
2018-Jun-20 11:30N 34°12' W 119°40'510.7
2018-Jun-20 11:00N 34°10' W 119°34'610.6
2018-Jun-20 10:28N 34°08' W 119°28'510.1
2018-Jun-20 10:00N 34°06' W 119°23'510.5
2018-Jun-20 09:30N 34°04' W 119°17'510.6
2018-Jun-20 09:00N 34°01' W 119°12'510.4
2018-Jun-20 08:30N 33°57' W 119°08'510.6
2018-Jun-20 08:00N 33°53' W 119°04'510.4
2018-Jun-20 07:29N 33°50' W 118°58'510.2
2018-Jun-20 07:00N 33°47' W 118°54'510.3
2018-Jun-20 06:29N 33°44' W 118°49'510.0
2018-Jun-20 05:59N 33°40' W 118°44'5710.0
2018-Jun-20 00:19N 33°04' W 117°51'20 9.5
2018-Jun-19 22:15N 32°51' W 117°34'2 9.5
2018-Jun-19 22:00N 32°49' W 117°32'5 9.5
2018-Jun-19 21:30N 32°46' W 117°28'  

Dump ship's entire track history